createdAt,value
2018-11-25T00:00:24.962Z,50.00
2018-11-25T00:02:53.667Z,46.87
2018-11-25T00:05:22.204Z,50.10
2018-11-25T00:07:50.739Z,47.80
2018-11-25T00:10:19.248Z,50.77
2018-11-25T00:12:47.815Z,47.37
2018-11-25T00:15:16.512Z,49.50
2018-11-25T00:17:45.034Z,50.40
2018-11-25T00:20:14.336Z,50.73
2018-11-25T00:22:43.537Z,50.63
2018-11-25T00:25:13.286Z,54.80
2018-11-25T00:27:41.814Z,50.13
2018-11-25T00:30:13.649Z,48.77
2018-11-25T00:32:42.256Z,49.53
2018-11-25T00:35:11.977Z,50.67
2018-11-25T00:37:47.537Z,51.27
2018-11-25T00:40:10.814Z,52.23
2018-11-25T00:42:39.514Z,49.43
2018-11-25T00:45:12.611Z,50.73
2018-11-25T00:47:41.400Z,49.93
2018-11-25T00:50:11.420Z,54.73
2018-11-25T00:52:40.122Z,51.27
2018-11-25T00:55:10.435Z,49.77
2018-11-25T00:57:39.034Z,51.20
2018-11-25T01:00:14.543Z,53.67
2018-11-25T01:02:43.196Z,50.13
2018-11-25T01:05:12.161Z,50.33
2018-11-25T01:07:40.770Z,51.53
2018-11-25T01:10:10.909Z,46.70
2018-11-25T01:12:39.599Z,47.83
2018-11-25T01:15:11.091Z,60.17
2018-11-25T01:17:39.732Z,51.43
2018-11-25T01:20:10.877Z,54.40
2018-11-25T01:22:39.663Z,52.47
2018-11-25T01:25:09.395Z,52.13
2018-11-25T01:27:38.004Z,52.60
2018-11-25T01:30:10.364Z,50.30
2018-11-25T01:32:38.966Z,48.57
2018-11-25T01:35:08.770Z,48.23
2018-11-25T01:37:37.536Z,44.63
2018-11-25T01:40:09.024Z,47.17
2018-11-25T01:42:38.011Z,47.20
2018-11-25T01:45:07.924Z,47.87
2018-11-25T01:47:36.440Z,51.33
2018-11-25T01:50:06.887Z,49.33
2018-11-25T01:52:35.443Z,45.30
2018-11-25T01:55:04.068Z,48.37
2018-11-25T01:57:32.599Z,48.90
2018-11-25T02:00:01.325Z,52.40
2018-11-25T02:02:29.968Z,50.83
2018-11-25T02:04:58.623Z,46.07
2018-11-25T02:07:27.272Z,48.20
2018-11-25T02:09:55.841Z,47.53
2018-11-25T02:12:24.371Z,50.10
2018-11-25T02:14:53.027Z,44.10
2018-11-25T02:17:21.640Z,45.87
2018-11-25T02:19:50.301Z,46.73
2018-11-25T02:22:18.881Z,46.43
2018-11-25T02:24:47.430Z,44.30
2018-11-25T02:27:15.915Z,46.13
2018-11-25T02:29:44.537Z,44.77
2018-11-25T02:32:13.089Z,43.57
2018-11-25T02:34:41.648Z,40.23
2018-11-25T02:37:10.161Z,41.57
2018-11-25T02:39:38.779Z,41.07
2018-11-25T02:42:07.339Z,41.73
2018-11-25T02:44:35.841Z,44.20
2018-11-25T02:47:04.357Z,42.27
2018-11-25T02:49:32.853Z,41.80
2018-11-25T02:52:01.439Z,39.67
2018-11-25T02:54:30.117Z,42.63
2018-11-25T02:56:58.640Z,38.43
2018-11-25T02:59:27.312Z,41.63
2018-11-25T03:01:55.815Z,39.67
2018-11-25T03:04:24.474Z,38.50
2018-11-25T03:06:53.011Z,39.73
2018-11-25T03:09:21.793Z,36.03
2018-11-25T03:11:50.366Z,34.47
2018-11-25T03:14:19.013Z,36.07
2018-11-25T03:16:47.529Z,36.63
2018-11-25T03:19:16.137Z,36.73
2018-11-25T03:21:44.733Z,35.67
2018-11-25T03:24:13.353Z,34.40
2018-11-25T03:26:41.973Z,31.27
2018-11-25T03:29:10.512Z,31.83
2018-11-25T03:31:39.102Z,34.97
2018-11-25T03:34:07.610Z,30.60
2018-11-25T03:36:36.144Z,33.53
2018-11-25T03:39:06.298Z,30.03
2018-11-25T03:41:34.816Z,28.80
2018-11-25T03:44:03.326Z,28.43
2018-11-25T03:46:31.853Z,29.40
2018-11-25T03:49:00.393Z,29.90
2018-11-25T03:51:29.032Z,28.53
2018-11-25T03:53:57.595Z,31.37
2018-11-25T03:56:26.381Z,30.83
2018-11-25T03:58:54.970Z,28.07
2018-11-25T04:01:23.585Z,31.73
2018-11-25T04:03:52.096Z,27.70
2018-11-25T04:06:20.654Z,29.97
2018-11-25T04:08:49.335Z,28.30
2018-11-25T04:11:17.972Z,29.30
2018-11-25T04:13:46.476Z,27.37
2018-11-25T04:16:15.132Z,30.07
2018-11-25T04:18:43.713Z,27.70
2018-11-25T04:21:15.050Z,27.60
2018-11-25T04:23:44.000Z,28.60
2018-11-25T04:26:12.533Z,30.07
2018-11-25T04:28:41.124Z,27.63
2018-11-25T04:31:09.691Z,28.27
2018-11-25T04:33:38.364Z,27.03
2018-11-25T04:36:06.918Z,27.37
2018-11-25T04:38:35.510Z,29.10
2018-11-25T04:41:04.069Z,30.83
2018-11-25T04:43:32.777Z,27.40
2018-11-25T04:46:01.556Z,28.13
2018-11-25T04:48:30.088Z,29.93
2018-11-25T04:50:58.648Z,29.73
2018-11-25T04:53:27.184Z,26.27
2018-11-25T04:55:55.943Z,25.67
2018-11-25T04:58:24.455Z,29.03
2018-11-25T05:00:53.126Z,28.00
2018-11-25T05:03:21.689Z,27.83
2018-11-25T05:05:50.411Z,27.60
2018-11-25T05:08:19.068Z,27.03
2018-11-25T05:10:47.915Z,26.20
2018-11-25T05:13:16.514Z,28.07
2018-11-25T05:15:45.093Z,28.50
2018-11-25T05:18:13.910Z,26.00
2018-11-25T05:20:42.546Z,26.00
2018-11-25T05:23:11.160Z,27.13
2018-11-25T05:25:39.886Z,28.47
2018-11-25T05:28:08.438Z,26.23
2018-11-25T05:30:36.956Z,27.70
2018-11-25T05:33:05.534Z,25.47
2018-11-25T05:35:34.056Z,26.10
2018-11-25T05:38:02.618Z,24.83
2018-11-25T05:40:31.291Z,27.60
2018-11-25T05:42:59.811Z,25.70
2018-11-25T05:45:28.655Z,28.07
2018-11-25T05:47:57.493Z,24.33
2018-11-25T05:50:26.038Z,26.80
2018-11-25T05:52:54.753Z,28.17
2018-11-25T05:55:23.297Z,25.73
2018-11-25T05:57:52.070Z,24.60
2018-11-25T06:00:32.513Z,26.00
2018-11-25T06:03:01.719Z,26.93
2018-11-25T06:05:30.358Z,25.77
2018-11-25T06:07:58.889Z,26.07
2018-11-25T06:10:27.480Z,25.07
2018-11-25T06:12:56.075Z,24.70
2018-11-25T06:15:24.589Z,23.23
2018-11-25T06:17:53.091Z,24.30
2018-11-25T06:20:21.683Z,23.70
2018-11-25T06:22:50.278Z,24.70
2018-11-25T06:25:20.146Z,23.23
2018-11-25T06:27:48.803Z,24.63
2018-11-25T06:30:19.160Z,25.57
2018-11-25T06:32:47.756Z,25.23
2018-11-25T06:35:17.175Z,25.10
2018-11-25T06:37:45.696Z,23.00
2018-11-25T06:40:16.472Z,21.27
2018-11-25T06:42:45.040Z,22.03
2018-11-25T06:45:15.056Z,22.23
2018-11-25T06:47:43.744Z,24.53
2018-11-25T06:50:12.939Z,24.57
2018-11-25T06:52:41.514Z,20.53
2018-11-25T06:55:12.230Z,21.43
2018-11-25T06:57:40.828Z,22.50
2018-11-25T07:00:15.502Z,20.10
2018-11-25T07:02:44.073Z,20.27
2018-11-25T07:05:12.671Z,21.20
2018-11-25T07:07:41.203Z,19.30
2018-11-25T07:10:11.487Z,20.53
2018-11-25T07:12:40.225Z,21.13
2018-11-25T07:15:13.191Z,21.00
2018-11-25T07:17:41.750Z,21.13
2018-11-25T07:20:11.557Z,21.23
2018-11-25T07:22:40.054Z,19.67
2018-11-25T07:25:13.814Z,20.67
2018-11-25T07:27:42.442Z,20.10
2018-11-25T07:30:27.769Z,19.67
2018-11-25T07:32:56.563Z,19.40
2018-11-25T07:35:26.201Z,19.00
2018-11-25T07:37:54.833Z,20.30
2018-11-25T07:40:24.086Z,22.20
2018-11-25T07:42:52.601Z,21.20
2018-11-25T07:45:29.767Z,19.80
2018-11-25T07:47:50.978Z,22.40
2018-11-25T07:50:19.576Z,21.60
2018-11-25T07:52:48.807Z,22.50
2018-11-25T07:55:18.436Z,18.17
2018-11-25T07:57:47.372Z,24.50
2018-11-25T08:00:17.095Z,23.47
2018-11-25T08:02:45.632Z,19.90
2018-11-25T08:05:15.490Z,19.20
2018-11-25T08:07:43.978Z,23.35
2018-11-25T08:10:15.382Z,19.57
2018-11-25T08:12:44.132Z,22.80
2018-11-25T08:15:14.570Z,22.17
2018-11-25T08:17:43.118Z,22.47
2018-11-25T08:20:13.004Z,21.13
2018-11-25T08:22:41.682Z,22.13
2018-11-25T08:25:14.276Z,21.30
2018-11-25T08:27:42.842Z,22.20
2018-11-25T08:30:14.254Z,24.17
2018-11-25T08:32:42.935Z,22.20
2018-11-25T08:35:12.104Z,24.97
2018-11-25T08:37:40.759Z,23.70
2018-11-25T08:40:14.285Z,21.87
2018-11-25T08:42:42.813Z,22.20
2018-11-25T08:45:12.355Z,21.70
2018-11-25T08:47:40.959Z,21.90
2018-11-25T08:50:18.262Z,21.63
2018-11-25T08:52:48.933Z,23.77
2018-11-25T08:55:24.520Z,23.50
2018-11-25T08:57:53.421Z,23.70
2018-11-25T09:00:23.189Z,23.27
2018-11-25T09:02:52.629Z,23.77
2018-11-25T09:05:21.280Z,23.03
2018-11-25T09:07:49.880Z,22.70
2018-11-25T09:10:19.663Z,25.63
2018-11-25T09:12:56.580Z,25.33
2018-11-25T09:15:27.115Z,25.73
2018-11-25T09:17:55.758Z,24.67
2018-11-25T09:20:24.424Z,26.33
2018-11-25T09:22:53.385Z,23.47
2018-11-25T09:25:23.311Z,24.80
2018-11-25T09:27:52.142Z,24.07
2018-11-25T09:30:23.154Z,25.10
2018-11-25T09:32:51.725Z,25.92
2018-11-25T09:35:20.432Z,25.70
2018-11-25T09:37:49.086Z,24.80
2018-11-25T09:40:22.725Z,25.90
2018-11-25T09:42:51.624Z,28.83
2018-11-25T09:45:20.736Z,24.53
2018-11-25T09:47:49.700Z,27.83
2018-11-25T09:50:20.394Z,25.43
2018-11-25T09:52:48.971Z,26.73
2018-11-25T09:55:19.549Z,28.03
2018-11-25T09:57:55.628Z,28.83
2018-11-25T10:00:27.532Z,26.87
2018-11-25T10:02:56.302Z,26.57
2018-11-25T10:05:24.995Z,28.73
2018-11-25T10:07:53.629Z,27.70
2018-11-25T10:10:23.256Z,29.50
2018-11-25T10:12:52.000Z,27.07
2018-11-25T10:15:21.821Z,29.00
2018-11-25T10:17:50.435Z,29.13
2018-11-25T10:20:21.055Z,28.73
2018-11-25T10:22:49.701Z,29.17
2018-11-25T10:25:18.378Z,30.93
2018-11-25T10:27:47.183Z,28.53
2018-11-25T10:30:21.619Z,28.67
2018-11-25T10:32:55.555Z,31.70
2018-11-25T10:35:24.165Z,28.97
2018-11-25T10:37:52.784Z,30.23
2018-11-25T10:40:22.904Z,31.47
2018-11-25T10:42:51.715Z,30.50
2018-11-25T10:45:22.595Z,31.50
2018-11-25T10:47:51.262Z,29.73
2018-11-25T10:50:20.719Z,32.53
2018-11-25T10:52:49.671Z,29.20
2018-11-25T10:55:19.155Z,29.57
2018-11-25T10:57:49.513Z,29.93
2018-11-25T11:00:34.261Z,32.83
2018-11-25T11:03:08.017Z,30.30
2018-11-25T11:05:42.011Z,31.63
2018-11-25T11:08:10.932Z,34.70
2018-11-25T11:10:39.568Z,37.07
2018-11-25T11:13:08.850Z,34.20
2018-11-25T11:15:37.590Z,32.13
2018-11-25T11:18:06.853Z,33.70
2018-11-25T11:20:35.485Z,31.33
2018-11-25T11:23:04.038Z,35.03
2018-11-25T11:25:32.718Z,32.80
2018-11-25T11:28:01.368Z,36.70
2018-11-25T11:30:29.944Z,198.17
2018-11-25T11:32:58.597Z,35.07
2018-11-25T11:35:27.244Z,38.70
2018-11-25T11:37:55.773Z,38.27
2018-11-25T11:40:24.418Z,37.37
2018-11-25T11:42:53.024Z,37.17
2018-11-25T11:45:21.595Z,38.93
2018-11-25T11:47:50.673Z,40.80
2018-11-25T11:50:20.802Z,39.97
2018-11-25T11:52:49.429Z,36.80
2018-11-25T11:55:18.713Z,39.80
2018-11-25T11:57:48.210Z,44.63
2018-11-25T12:00:25.947Z,43.67
2018-11-25T12:02:54.544Z,42.77
2018-11-25T12:05:23.208Z,42.17
2018-11-25T12:07:51.814Z,43.70
2018-11-25T12:10:20.705Z,40.90
2018-11-25T12:12:49.407Z,43.20
2018-11-25T12:15:29.928Z,40.83
2018-11-25T12:17:51.220Z,42.90
2018-11-25T12:20:21.433Z,43.40
2018-11-25T12:22:51.218Z,43.37
2018-11-25T12:25:19.944Z,42.63
2018-11-25T12:27:49.524Z,43.47
2018-11-25T12:30:18.239Z,38.60
2018-11-25T12:32:48.533Z,45.00
2018-11-25T12:35:18.008Z,45.00
2018-11-25T12:37:46.701Z,41.93
2018-11-25T12:40:18.765Z,39.57
2018-11-25T12:42:48.727Z,40.43
2018-11-25T12:45:18.245Z,45.77
2018-11-25T12:47:46.942Z,42.87
2018-11-25T12:50:21.213Z,41.30
2018-11-25T12:52:49.940Z,43.93
2018-11-25T12:55:19.871Z,47.90
2018-11-25T12:57:48.726Z,48.40
2018-11-25T13:00:25.863Z,44.60
2018-11-25T13:02:55.628Z,44.60
2018-11-25T13:05:24.250Z,44.63
2018-11-25T13:07:53.066Z,45.57
2018-11-25T13:10:21.667Z,50.73
2018-11-25T13:12:50.289Z,44.47
2018-11-25T13:15:18.941Z,43.20
2018-11-25T13:17:48.563Z,42.37
2018-11-25T13:20:17.602Z,45.60
2018-11-25T13:22:46.198Z,41.27
2018-11-25T13:25:16.059Z,44.07
2018-11-25T13:27:44.899Z,46.23
2018-11-25T13:30:20.212Z,46.60
2018-11-25T13:32:48.024Z,47.77
2018-11-25T13:35:16.821Z,44.43
2018-11-25T13:37:45.509Z,48.03
2018-11-25T13:40:15.121Z,48.90
2018-11-25T13:42:43.819Z,51.23
2018-11-25T13:45:12.527Z,51.83
2018-11-25T13:47:41.181Z,49.23
2018-11-25T13:50:12.033Z,50.13
2018-11-25T13:52:40.864Z,52.83
2018-11-25T13:55:14.427Z,48.47
2018-11-25T13:57:43.012Z,51.23
2018-11-25T14:01:17.889Z,52.50
2018-11-25T14:03:46.614Z,49.40
2018-11-25T14:06:15.760Z,46.67
2018-11-25T14:08:46.958Z,51.73
2018-11-25T14:11:15.946Z,54.43
2018-11-25T14:13:45.312Z,53.53
2018-11-25T14:16:16.802Z,53.40
2018-11-25T14:18:45.464Z,49.27
2018-11-25T14:21:15.670Z,58.10
2018-11-25T14:23:43.044Z,54.07
2018-11-25T14:26:16.272Z,58.57
2018-11-25T14:28:45.364Z,52.83
2018-11-25T14:31:13.956Z,54.47
2018-11-25T14:33:42.570Z,55.77
2018-11-25T14:36:11.269Z,53.37
2018-11-25T14:38:40.184Z,59.67
2018-11-25T14:41:08.745Z,60.20
2018-11-25T14:43:37.569Z,54.87
2018-11-25T14:46:06.304Z,63.20
2018-11-25T14:48:34.976Z,57.67
2018-11-25T14:51:03.627Z,58.97
2018-11-25T14:53:32.402Z,55.03
2018-11-25T14:56:01.112Z,58.63
2018-11-25T14:58:29.802Z,56.37
2018-11-25T15:00:58.384Z,55.73
2018-11-25T15:03:27.076Z,59.97
2018-11-25T15:05:55.737Z,54.50
2018-11-25T15:08:25.954Z,58.83
2018-11-25T15:10:54.581Z,62.00
2018-11-25T15:13:23.173Z,54.30
2018-11-25T15:15:51.842Z,57.03
2018-11-25T15:18:20.499Z,54.20
2018-11-25T15:20:49.244Z,56.40
2018-11-25T15:23:17.863Z,58.33
2018-11-25T15:25:48.506Z,56.63
2018-11-25T15:28:17.226Z,58.07
2018-11-25T15:30:45.910Z,61.43
2018-11-25T15:33:14.599Z,60.00
2018-11-25T15:35:43.266Z,58.17
2018-11-25T15:38:11.936Z,59.60
2018-11-25T15:40:41.129Z,59.50
2018-11-25T15:43:11.069Z,60.40
2018-11-25T15:45:39.845Z,62.57
2018-11-25T15:48:17.696Z,60.13
2018-11-25T15:50:46.463Z,63.17
2018-11-25T15:53:15.356Z,64.77
2018-11-25T15:55:45.643Z,63.03
2018-11-25T15:58:14.291Z,65.73
2018-11-25T16:00:44.871Z,65.97
2018-11-25T16:03:14.527Z,68.20
2018-11-25T16:05:45.791Z,60.10
2018-11-25T16:08:14.475Z,61.30
2018-11-25T16:10:43.025Z,67.40
2018-11-25T16:13:11.700Z,69.50
2018-11-25T16:15:40.463Z,69.33
2018-11-25T16:18:09.135Z,69.10
2018-11-25T16:27:24.326Z,63.63
2018-11-25T16:29:53.033Z,56.50
2018-11-25T16:32:21.860Z,57.50
2018-11-25T16:34:50.502Z,62.67
2018-11-25T16:37:19.121Z,59.93
2018-11-25T16:39:47.868Z,59.67
2018-11-25T16:42:16.517Z,60.93
2018-11-25T16:44:45.115Z,62.70
2018-11-25T16:47:13.834Z,64.07
2018-11-25T16:49:42.522Z,66.23
2018-11-25T16:52:11.165Z,60.33
2018-11-25T16:54:39.891Z,60.50
2018-11-25T16:57:08.577Z,63.70
2018-11-25T16:59:37.197Z,67.13
2018-11-25T17:02:05.988Z,69.60
2018-11-25T17:04:34.752Z,67.30
2018-11-25T17:07:03.450Z,64.80
2018-11-25T17:09:32.106Z,67.27
2018-11-25T17:12:00.737Z,68.60
2018-11-25T17:14:33.810Z,73.23
2018-11-25T17:16:58.259Z,69.87
2018-11-25T17:19:26.893Z,63.63
2018-11-25T17:21:55.735Z,67.33
2018-11-25T17:24:24.484Z,75.77
2018-11-25T17:26:53.230Z,76.23
2018-11-25T17:29:21.808Z,69.83
2018-11-25T17:31:50.349Z,71.47
2018-11-25T17:34:19.130Z,64.67
2018-11-25T17:36:48.279Z,70.27
2018-11-25T17:39:17.254Z,70.30
2018-11-25T17:41:46.113Z,68.50
2018-11-25T17:44:14.734Z,70.90
2018-11-25T17:46:43.325Z,70.03
2018-11-25T17:49:12.073Z,73.83
2018-11-25T17:51:40.876Z,73.03
2018-11-25T17:54:09.674Z,71.40
2018-11-25T17:56:39.309Z,69.30
2018-11-25T17:59:08.156Z,62.70
2018-11-25T18:01:36.876Z,67.83
2018-11-25T18:04:05.770Z,68.83
2018-11-25T18:06:34.453Z,68.03
2018-11-25T18:09:03.275Z,67.43
2018-11-25T18:11:32.003Z,65.00
2018-11-25T18:14:00.655Z,63.03
2018-11-25T18:16:29.395Z,64.83
2018-11-25T18:19:09.035Z,64.10
2018-11-25T18:21:37.719Z,74.83
2018-11-25T18:24:06.609Z,73.57
2018-11-25T18:26:35.534Z,68.00
2018-11-25T18:29:05.209Z,75.60
2018-11-25T18:31:34.733Z,67.30
2018-11-25T18:34:03.769Z,69.90
2018-11-25T18:36:32.541Z,69.33
2018-11-25T18:39:02.332Z,74.50
2018-11-25T18:41:30.960Z,69.10
2018-11-25T18:43:59.746Z,71.43
2018-11-25T18:46:28.454Z,72.07
2018-11-25T18:48:57.217Z,79.07
2018-11-25T18:51:25.845Z,76.80
2018-11-25T18:53:54.589Z,65.50
2018-11-25T18:56:23.414Z,70.53
2018-11-25T18:58:52.183Z,67.33
2018-11-25T19:01:32.627Z,71.07
2018-11-25T19:04:01.619Z,65.83
2018-11-25T19:06:30.261Z,76.43
2018-11-25T19:08:58.881Z,67.20
2018-11-25T19:11:27.797Z,62.97
2018-11-25T19:13:56.417Z,60.07
2018-11-25T19:16:25.186Z,60.30
2018-11-25T19:18:53.882Z,70.90
2018-11-25T19:21:22.550Z,68.07
2018-11-25T19:23:51.770Z,67.23
2018-11-25T19:26:20.367Z,67.57
2018-11-25T19:28:48.952Z,64.43
2018-11-25T19:31:17.583Z,77.70
2018-11-25T19:33:46.237Z,65.03
2018-11-25T19:36:14.937Z,67.43
2018-11-25T19:38:44.259Z,63.13
2018-11-25T19:41:12.996Z,59.17
2018-11-25T19:43:41.625Z,56.53
2018-11-25T19:46:11.117Z,58.53
2018-11-25T19:48:39.947Z,69.57
2018-11-25T19:51:16.785Z,63.43
2018-11-25T19:53:37.522Z,67.60
2018-11-25T19:56:06.402Z,60.47
2018-11-25T19:58:35.278Z,60.47
2018-11-25T20:01:04.161Z,60.73
2018-11-25T20:03:32.864Z,69.03
2018-11-25T20:06:01.780Z,64.40
2018-11-25T20:08:30.390Z,61.97
2018-11-25T20:11:00.816Z,61.50
2018-11-25T20:13:29.370Z,63.87
2018-11-25T20:16:03.482Z,64.87
2018-11-25T20:18:32.216Z,57.67
2018-11-25T20:21:06.963Z,65.10
2018-11-25T20:23:35.974Z,63.90
2018-11-25T20:26:04.602Z,65.80
2018-11-25T20:28:33.333Z,67.60
2018-11-25T20:31:02.788Z,62.67
2018-11-25T20:33:36.736Z,65.93
2018-11-25T20:36:05.855Z,58.37
2018-11-25T20:38:39.501Z,72.83
2018-11-25T20:41:08.285Z,64.13
2018-11-25T20:43:36.955Z,63.53
2018-11-25T20:46:11.405Z,70.77
2018-11-25T20:48:40.195Z,69.57
2018-11-25T20:51:08.816Z,65.10
2018-11-25T20:53:42.765Z,61.53
2018-11-25T20:56:11.442Z,64.17
2018-11-25T20:58:40.074Z,65.97
2018-11-25T21:01:08.777Z,59.97
2018-11-25T21:03:37.475Z,64.90
2018-11-25T21:06:06.367Z,60.63
2018-11-25T21:08:35.044Z,59.60
2018-11-25T21:11:03.653Z,68.07
2018-11-25T21:13:32.317Z,68.27
2018-11-25T21:16:00.945Z,61.30
2018-11-25T21:18:29.582Z,65.53
2018-11-25T21:20:58.182Z,60.37
2018-11-25T21:23:26.964Z,63.63
2018-11-25T21:25:55.508Z,74.87
2018-11-25T21:28:24.077Z,62.50
2018-11-25T21:30:52.724Z,65.17
2018-11-25T21:33:21.273Z,65.07
2018-11-25T21:35:49.946Z,62.33
2018-11-25T21:38:18.652Z,60.53
2018-11-25T21:40:47.393Z,67.03
2018-11-25T21:43:16.042Z,62.17
2018-11-25T21:45:44.633Z,66.77
2018-11-25T21:48:14.959Z,57.37
2018-11-25T21:50:43.518Z,71.77
2018-11-25T21:53:12.271Z,57.47
2018-11-25T21:55:40.893Z,63.73
2018-11-25T21:58:09.457Z,58.97
2018-11-25T22:00:38.238Z,56.10
2018-11-25T22:03:06.868Z,57.20
2018-11-25T22:05:35.632Z,57.10
2018-11-25T22:08:04.514Z,69.73
2018-11-25T22:10:33.228Z,56.77
2018-11-25T22:13:03.176Z,58.77
2018-11-25T22:15:32.018Z,54.70
2018-11-25T22:18:00.922Z,62.33
2018-11-25T22:20:29.808Z,63.00
2018-11-25T22:22:58.561Z,65.70
2018-11-25T22:25:27.154Z,61.10
2018-11-25T22:27:55.824Z,63.27
2018-11-25T22:30:25.000Z,61.97
2018-11-25T22:32:53.747Z,57.70
2018-11-25T22:35:23.481Z,63.70
2018-11-25T22:37:52.219Z,61.90
2018-11-25T22:40:21.353Z,58.80
2018-11-25T22:42:51.014Z,63.50
2018-11-25T22:45:23.500Z,61.60
2018-11-25T22:47:52.134Z,60.17
2018-11-25T22:50:25.546Z,62.87
2018-11-25T22:52:50.997Z,59.83
2018-11-25T22:55:21.022Z,68.03
2018-11-25T22:57:49.731Z,67.27
2018-11-25T23:00:36.852Z,60.43
2018-11-25T23:03:05.756Z,59.43
2018-11-25T23:05:45.665Z,63.03
2018-11-25T23:08:14.362Z,60.27
2018-11-25T23:10:42.991Z,71.53
2018-11-25T23:13:11.663Z,71.07
2018-11-25T23:15:40.382Z,61.37
2018-11-25T23:18:09.070Z,60.40
2018-11-25T23:20:37.818Z,66.43
2018-11-25T23:23:07.228Z,64.73
2018-11-25T23:25:35.846Z,68.60
2018-11-25T23:28:04.460Z,61.17
2018-11-25T23:30:33.099Z,62.97
2018-11-25T23:33:01.650Z,62.10
2018-11-25T23:35:31.474Z,67.00
2018-11-25T23:38:00.033Z,65.67
2018-11-25T23:40:28.587Z,59.50
2018-11-25T23:42:57.298Z,59.13
2018-11-25T23:45:25.848Z,65.80
2018-11-25T23:47:54.577Z,63.10
2018-11-25T23:50:23.221Z,61.70
2018-11-25T23:52:51.766Z,55.30
2018-11-25T23:55:20.381Z,58.73
2018-11-25T23:57:49.064Z,57.77
